UAE79Y EGLL-OMDB
Flight info
| Callsign | UAE79Y |
|---|---|
| Flight time | N/A |
| Altitude | 37000 |
| Route | DET L6 DVR UL9 KONAN UL607 KOK DCT REMBA DCT LIRSU DCT KRH DCT UTABA DCT MOMUK DCT GEDSO DCT VEKEN DCT MSR DCT PINDO DCT PAXIS Y707 OBRAN L321 REXUM M872 WEJ/N0481F390 M872 BDB Y214 RAPMA DCT KUVSO DCT KATIT DCT PEKEM M628 RIGIL G783 ELUDA/N0470F350 G783 ASPED Q308 KIPOK Q568 IMPED |
| Aircraft | A388/J-SADE2E3FGHIJ3J4J5M1RWXY/LB1D1 |
Departure
| Time | N/A |
|---|---|
| Airport | London Heathrow Airport (EGLL) |
Arrival
| Time | 2026-04-26 22:45 |
|---|---|
| Airport | Dubai International Airport (OMDB) |
| Time | Latitude | Longitude | Altitude | Speed | Heading |
|---|---|---|---|---|---|
| 2026-04-26 16:40 | 48.99289 | 8.58130 | 37201 ft | 507 kts | 137° |
| 2026-04-26 16:41 | 48.94147 | 8.64679 | 37201 ft | 507 kts | 143° |
| 2026-04-26 16:41 | 48.88623 | 8.71307 | 37200 ft | 507 kts | 142° |
| 2026-04-26 16:42 | 48.83109 | 8.77948 | 37202 ft | 507 kts | 142° |
| 2026-04-26 16:42 | 48.77576 | 8.84590 | 37202 ft | 507 kts | 142° |
| 2026-04-26 16:43 | 48.72030 | 8.91227 | 37219 ft | 507 kts | 142° |
| 2026-04-26 16:43 | 48.66487 | 8.97841 | 37219 ft | 507 kts | 142° |
| 2026-04-26 16:44 | 48.60927 | 9.04456 | 37220 ft | 507 kts | 143° |
| 2026-04-26 16:44 | 48.55402 | 9.11009 | 37203 ft | 507 kts | 143° |
| 2026-04-26 16:45 | 48.49852 | 9.17575 | 37192 ft | 507 kts | 143° |
| 2026-04-26 16:45 | 48.44290 | 9.24135 | 37185 ft | 507 kts | 143° |
| 2026-04-26 16:46 | 48.38753 | 9.30648 | 37180 ft | 508 kts | 143° |
| 2026-04-26 16:46 | 48.33181 | 9.37183 | 37174 ft | 508 kts | 143° |
| 2026-04-26 16:47 | 48.27610 | 9.43697 | 37191 ft | 508 kts | 143° |
| 2026-04-26 16:47 | 48.22095 | 9.50348 | 37187 ft | 508 kts | 140° |
| 2026-04-26 16:48 | 48.16787 | 9.57366 | 37181 ft | 508 kts | 139° |
| 2026-04-26 16:48 | 48.11462 | 9.64329 | 37184 ft | 508 kts | 140° |
| 2026-04-26 16:49 | 48.06817 | 9.70327 | 37160 ft | 508 kts | 140° |
| 2026-04-26 16:49 | 48.01446 | 9.77228 | 37185 ft | 508 kts | 140° |
| 2026-04-26 16:50 | 47.96076 | 9.84107 | 37179 ft | 509 kts | 140° |
| 2026-04-26 16:50 | 47.90697 | 9.90981 | 37194 ft | 509 kts | 140° |
| 2026-04-26 16:51 | 47.85497 | 9.98060 | 37193 ft | 509 kts | 133° |
| 2026-04-26 16:51 | 47.81187 | 10.06415 | 37202 ft | 509 kts | 121° |
| 2026-04-26 16:52 | 47.78232 | 10.13993 | 37197 ft | 509 kts | 119° |
| 2026-04-26 16:52 | 47.74059 | 10.24658 | 37203 ft | 509 kts | 120° |
| 2026-04-26 16:53 | 47.70467 | 10.33748 | 37193 ft | 509 kts | 120° |
| 2026-04-26 16:53 | 47.66900 | 10.42745 | 37202 ft | 509 kts | 120° |
| 2026-04-26 16:54 | 47.63299 | 10.51796 | 37208 ft | 509 kts | 120° |
| 2026-04-26 16:54 | 47.59694 | 10.60830 | 37208 ft | 508 kts | 120° |
| 2026-04-26 16:55 | 47.56089 | 10.69831 | 37202 ft | 508 kts | 120° |
| 2026-04-26 16:55 | 47.52472 | 10.78834 | 37195 ft | 507 kts | 120° |
| 2026-04-26 16:56 | 47.47082 | 10.92193 | 37183 ft | 506 kts | 120° |
| 2026-04-26 16:57 | 47.43453 | 11.01152 | 37165 ft | 506 kts | 120° |
| 2026-04-26 16:57 | 47.38008 | 11.14534 | 37119 ft | 506 kts | 120° |
| 2026-04-26 16:58 | 47.35606 | 11.20422 | 37115 ft | 506 kts | 120° |
| 2026-04-26 16:59 | 47.28924 | 11.36726 | 37120 ft | 507 kts | 121° |
| 2026-04-26 17:00 | 47.21616 | 11.54445 | 37123 ft | 509 kts | 121° |
| 2026-04-26 17:00 | 47.16086 | 11.67781 | 37145 ft | 508 kts | 122° |
| 2026-04-26 17:01 | 47.12393 | 11.76646 | 37142 ft | 508 kts | 122° |
| 2026-04-26 17:01 | 47.08692 | 11.85508 | 37138 ft | 509 kts | 122° |
| 2026-04-26 17:02 | 47.05470 | 11.94673 | 37132 ft | 509 kts | 116° |
| 2026-04-26 17:02 | 47.02370 | 12.04029 | 37127 ft | 510 kts | 117° |
| 2026-04-26 17:03 | 46.99239 | 12.13388 | 37139 ft | 511 kts | 117° |
| 2026-04-26 17:03 | 46.96090 | 12.22741 | 37146 ft | 512 kts | 117° |
| 2026-04-26 17:04 | 46.92949 | 12.32035 | 37147 ft | 512 kts | 118° |
| 2026-04-26 17:04 | 46.89801 | 12.41319 | 37123 ft | 512 kts | 118° |
| 2026-04-26 17:05 | 46.86629 | 12.50637 | 37138 ft | 512 kts | 118° |
| 2026-04-26 17:05 | 46.83462 | 12.59910 | 37130 ft | 513 kts | 118° |
| 2026-04-26 17:06 | 46.80265 | 12.69235 | 37125 ft | 514 kts | 118° |
| 2026-04-26 17:06 | 46.77057 | 12.78561 | 37114 ft | 513 kts | 119° |
| 2026-04-26 17:07 | 46.74386 | 12.86297 | 37109 ft | 513 kts | 119° |
| 2026-04-26 17:07 | 46.71167 | 12.95597 | 37105 ft | 513 kts | 119° |
| 2026-04-26 17:08 | 46.67941 | 13.04877 | 37092 ft | 513 kts | 119° |
| 2026-04-26 17:08 | 46.64705 | 13.14157 | 37092 ft | 514 kts | 119° |
| 2026-04-26 17:09 | 46.62008 | 13.21869 | 37091 ft | 514 kts | 119° |
| 2026-04-26 17:09 | 46.58189 | 13.32603 | 37091 ft | 513 kts | 122° |
| 2026-04-26 17:10 | 46.54119 | 13.41052 | 37097 ft | 508 kts | 133° |
| 2026-04-26 17:10 | 46.49238 | 13.48430 | 37086 ft | 506 kts | 138° |
| 2026-04-26 17:11 | 46.44272 | 13.55696 | 37091 ft | 506 kts | 137° |
| 2026-04-26 17:11 | 46.39345 | 13.62928 | 37090 ft | 506 kts | 138° |
| 2026-04-26 17:12 | 46.31909 | 13.73796 | 37082 ft | 506 kts | 138° |
| 2026-04-26 17:13 | 46.24446 | 13.84644 | 37097 ft | 508 kts | 138° |
| 2026-04-26 17:14 | 46.16967 | 13.95471 | 37104 ft | 509 kts | 138° |
| 2026-04-26 17:14 | 46.09450 | 14.06310 | 37099 ft | 509 kts | 138° |
| 2026-04-26 17:15 | 46.01916 | 14.17128 | 37092 ft | 509 kts | 138° |
| 2026-04-26 17:16 | 45.96926 | 14.24269 | 37088 ft | 508 kts | 138° |
| 2026-04-26 17:16 | 45.91911 | 14.31425 | 37086 ft | 507 kts | 138° |
| 2026-04-26 17:17 | 45.86897 | 14.38561 | 37088 ft | 507 kts | 138° |
| 2026-04-26 17:17 | 45.81874 | 14.45691 | 37084 ft | 507 kts | 138° |
| 2026-04-26 17:18 | 45.76844 | 14.52812 | 37086 ft | 508 kts | 138° |
| 2026-04-26 17:18 | 45.71845 | 14.59870 | 37092 ft | 508 kts | 138° |
| 2026-04-26 17:19 | 45.64283 | 14.70511 | 37101 ft | 507 kts | 138° |
| 2026-04-26 17:19 | 45.59273 | 14.77538 | 37095 ft | 506 kts | 138° |
| 2026-04-26 17:20 | 45.55265 | 14.83146 | 37096 ft | 506 kts | 138° |
| 2026-04-26 17:20 | 45.49383 | 14.91355 | 37108 ft | 505 kts | 138° |
| 2026-04-26 17:21 | 45.44349 | 14.98361 | 37100 ft | 505 kts | 138° |
| 2026-04-26 17:21 | 45.39303 | 15.05363 | 37096 ft | 506 kts | 138° |
| 2026-04-26 17:22 | 45.34252 | 15.12354 | 37104 ft | 506 kts | 138° |
| 2026-04-26 17:22 | 45.29243 | 15.19270 | 37109 ft | 506 kts | 138° |
| 2026-04-26 17:23 | 45.24211 | 15.26200 | 37101 ft | 506 kts | 138° |
| 2026-04-26 17:23 | 45.19154 | 15.33145 | 37102 ft | 506 kts | 138° |
| 2026-04-26 17:24 | 45.14086 | 15.40088 | 37102 ft | 506 kts | 138° |
| 2026-04-26 17:24 | 45.09054 | 15.46963 | 37096 ft | 505 kts | 138° |
| 2026-04-26 17:25 | 45.03984 | 15.53870 | 37139 ft | 504 kts | 137° |
| 2026-04-26 17:25 | 44.98941 | 15.60726 | 37125 ft | 503 kts | 137° |
| 2026-04-26 17:26 | 44.93878 | 15.67592 | 37120 ft | 501 kts | 137° |
| 2026-04-26 17:26 | 44.88880 | 15.74351 | 37107 ft | 500 kts | 137° |
| 2026-04-26 17:27 | 44.83857 | 15.81127 | 37096 ft | 499 kts | 137° |
| 2026-04-26 17:27 | 44.78839 | 15.87879 | 37097 ft | 498 kts | 137° |
| 2026-04-26 17:28 | 44.73817 | 15.94618 | 37095 ft | 499 kts | 137° |
| 2026-04-26 17:28 | 44.68790 | 16.01348 | 37095 ft | 499 kts | 137° |
| 2026-04-26 17:29 | 44.64599 | 16.06946 | 37095 ft | 499 kts | 138° |
| 2026-04-26 17:29 | 44.58737 | 16.14755 | 37112 ft | 500 kts | 137° |
| 2026-04-26 17:30 | 44.53685 | 16.21467 | 37109 ft | 500 kts | 137° |
| 2026-04-26 17:30 | 44.48616 | 16.28185 | 37112 ft | 500 kts | 137° |
| 2026-04-26 17:31 | 44.43551 | 16.34880 | 37115 ft | 500 kts | 137° |
| 2026-04-26 17:31 | 44.38481 | 16.41567 | 37116 ft | 500 kts | 138° |
| 2026-04-26 17:32 | 44.33437 | 16.48201 | 37111 ft | 500 kts | 138° |
| 2026-04-26 17:32 | 44.28360 | 16.54863 | 37112 ft | 500 kts | 138° |
| 2026-04-26 17:33 | 44.23290 | 16.61499 | 37110 ft | 500 kts | 138° |
| 2026-04-26 17:34 | 44.15703 | 16.71399 | 37104 ft | 499 kts | 138° |
| 2026-04-26 17:34 | 44.10621 | 16.78010 | 37109 ft | 499 kts | 138° |
| 2026-04-26 17:35 | 44.05530 | 16.84616 | 37102 ft | 499 kts | 138° |
| 2026-04-26 17:35 | 44.00488 | 16.91142 | 37104 ft | 499 kts | 138° |
| 2026-04-26 17:36 | 43.95396 | 16.97717 | 37104 ft | 499 kts | 138° |
| 2026-04-26 17:36 | 43.90307 | 17.04272 | 37108 ft | 499 kts | 138° |
| 2026-04-26 17:37 | 43.85234 | 17.10789 | 37111 ft | 499 kts | 138° |
| 2026-04-26 17:37 | 43.80121 | 17.17343 | 37115 ft | 499 kts | 138° |
| 2026-04-26 17:38 | 43.72485 | 17.27102 | 37110 ft | 499 kts | 138° |
| 2026-04-26 17:38 | 43.67377 | 17.33610 | 37103 ft | 499 kts | 138° |
| 2026-04-26 17:39 | 43.62260 | 17.40113 | 37100 ft | 499 kts | 138° |
| 2026-04-26 17:39 | 43.57143 | 17.46601 | 37094 ft | 499 kts | 138° |
| 2026-04-26 17:40 | 43.53750 | 17.50895 | 37092 ft | 499 kts | 138° |
| 2026-04-26 17:40 | 43.46930 | 17.59503 | 37070 ft | 499 kts | 138° |
| 2026-04-26 17:41 | 43.41808 | 17.65950 | 37053 ft | 499 kts | 138° |
| 2026-04-26 17:41 | 43.36678 | 17.72396 | 37045 ft | 499 kts | 138° |
| 2026-04-26 17:42 | 43.31545 | 17.78835 | 37045 ft | 499 kts | 138° |
| 2026-04-26 17:42 | 43.26427 | 17.85228 | 37046 ft | 499 kts | 139° |
| 2026-04-26 17:43 | 43.21140 | 17.91408 | 37045 ft | 500 kts | 140° |
| 2026-04-26 17:43 | 43.15875 | 17.97656 | 37056 ft | 500 kts | 140° |
| 2026-04-26 17:44 | 43.10602 | 18.03887 | 37062 ft | 500 kts | 140° |
| 2026-04-26 17:44 | 43.05350 | 18.10058 | 37074 ft | 500 kts | 140° |
| 2026-04-26 17:45 | 43.00057 | 18.16253 | 37081 ft | 500 kts | 140° |
| 2026-04-26 17:45 | 42.94761 | 18.22438 | 37081 ft | 500 kts | 140° |
| 2026-04-26 17:46 | 42.89473 | 18.28599 | 37076 ft | 500 kts | 140° |
| 2026-04-26 17:46 | 42.84197 | 18.34732 | 37076 ft | 500 kts | 140° |
| 2026-04-26 17:47 | 42.80647 | 18.38851 | 37075 ft | 500 kts | 140° |
| 2026-04-26 17:47 | 42.73573 | 18.47037 | 37075 ft | 500 kts | 140° |
| 2026-04-26 17:48 | 42.68406 | 18.53002 | 37074 ft | 500 kts | 140° |
| 2026-04-26 17:48 | 42.63097 | 18.59116 | 37078 ft | 500 kts | 140° |
| 2026-04-26 17:49 | 42.57776 | 18.65231 | 37074 ft | 501 kts | 141° |
| 2026-04-26 17:49 | 42.52477 | 18.71305 | 37075 ft | 501 kts | 141° |
| 2026-04-26 17:50 | 42.47145 | 18.77404 | 37073 ft | 501 kts | 141° |
| 2026-04-26 17:50 | 42.41802 | 18.83501 | 37071 ft | 501 kts | 141° |
| 2026-04-26 17:51 | 42.36493 | 18.89544 | 37069 ft | 501 kts | 141° |
| 2026-04-26 17:51 | 42.31158 | 18.95604 | 37062 ft | 501 kts | 141° |
| 2026-04-26 17:52 | 42.25804 | 19.01671 | 37053 ft | 501 kts | 141° |
| 2026-04-26 17:52 | 42.20457 | 19.07716 | 37068 ft | 502 kts | 141° |
| 2026-04-26 17:53 | 42.15113 | 19.13745 | 37065 ft | 502 kts | 141° |
| 2026-04-26 17:54 | 42.07058 | 19.22807 | 37046 ft | 503 kts | 141° |
| 2026-04-26 17:54 | 42.02581 | 19.27830 | 37070 ft | 503 kts | 141° |
| 2026-04-26 17:55 | 41.96310 | 19.34848 | 37063 ft | 503 kts | 142° |
| 2026-04-26 17:55 | 41.91787 | 19.39899 | 37222 ft | 505 kts | 142° |
| 2026-04-26 17:55 | 41.89120 | 19.42873 | 37663 ft | 504 kts | 142° |
| 2026-04-26 17:56 | 41.86416 | 19.45885 | 38068 ft | 503 kts | 142° |
| 2026-04-26 17:56 | 41.81029 | 19.51875 | 38815 ft | 503 kts | 142° |
| 2026-04-26 17:57 | 41.75615 | 19.57881 | 39064 ft | 505 kts | 142° |
| 2026-04-26 17:57 | 41.70241 | 19.63831 | 39069 ft | 500 kts | 142° |
| 2026-04-26 17:58 | 41.59508 | 19.75670 | 39074 ft | 501 kts | 142° |
| 2026-04-26 17:59 | 41.51437 | 19.84539 | 39074 ft | 501 kts | 142° |
| 2026-04-26 17:59 | 41.46050 | 19.90443 | 39071 ft | 500 kts | 142° |
| 2026-04-26 18:00 | 41.40687 | 19.96308 | 39068 ft | 500 kts | 142° |
| 2026-04-26 18:00 | 41.35303 | 20.02181 | 39070 ft | 500 kts | 142° |
| 2026-04-26 18:01 | 41.29919 | 20.08042 | 39067 ft | 499 kts | 142° |
| 2026-04-26 18:01 | 41.24560 | 20.13863 | 39065 ft | 499 kts | 142° |
| 2026-04-26 18:02 | 41.20089 | 20.18710 | 39060 ft | 499 kts | 142° |
| 2026-04-26 18:02 | 41.13788 | 20.25525 | 39063 ft | 499 kts | 142° |
| 2026-04-26 18:03 | 41.08434 | 20.31303 | 39067 ft | 500 kts | 142° |
| 2026-04-26 18:03 | 41.03052 | 20.37098 | 39069 ft | 500 kts | 142° |
| 2026-04-26 18:04 | 40.97636 | 20.42917 | 39066 ft | 500 kts | 142° |
| 2026-04-26 18:05 | 40.89520 | 20.51614 | 39061 ft | 499 kts | 142° |
| 2026-04-26 18:05 | 40.84148 | 20.57354 | 39061 ft | 498 kts | 142° |
| 2026-04-26 18:06 | 40.78746 | 20.63115 | 39051 ft | 498 kts | 143° |
| 2026-04-26 18:06 | 40.73352 | 20.68854 | 39051 ft | 498 kts | 143° |
| 2026-04-26 18:07 | 40.67978 | 20.74559 | 39047 ft | 498 kts | 143° |
| 2026-04-26 18:07 | 40.62574 | 20.80285 | 39047 ft | 498 kts | 143° |
| 2026-04-26 18:08 | 40.57163 | 20.86006 | 39048 ft | 498 kts | 143° |
| 2026-04-26 18:08 | 40.51770 | 20.91702 | 39051 ft | 497 kts | 143° |
| 2026-04-26 18:09 | 40.46368 | 20.97408 | 39050 ft | 497 kts | 142° |
| 2026-04-26 18:09 | 40.41071 | 21.03191 | 39047 ft | 497 kts | 141° |
| 2026-04-26 18:10 | 40.35769 | 21.09016 | 39042 ft | 497 kts | 142° |
| 2026-04-26 18:10 | 40.30453 | 21.14828 | 39047 ft | 497 kts | 142° |
| 2026-04-26 18:11 | 40.25125 | 21.20637 | 39040 ft | 498 kts | 142° |
| 2026-04-26 18:11 | 40.19787 | 21.26444 | 39048 ft | 498 kts | 142° |
| 2026-04-26 18:12 | 40.14482 | 21.32202 | 39046 ft | 498 kts | 142° |
| 2026-04-26 18:12 | 40.09131 | 21.37995 | 39045 ft | 499 kts | 142° |
| 2026-04-26 18:13 | 40.03777 | 21.43775 | 39043 ft | 499 kts | 142° |
| 2026-04-26 18:13 | 39.98455 | 21.49508 | 39042 ft | 499 kts | 142° |
| 2026-04-26 18:14 | 39.93100 | 21.55265 | 39054 ft | 499 kts | 142° |
| 2026-04-26 18:14 | 39.87746 | 21.61009 | 39033 ft | 499 kts | 142° |
| 2026-04-26 18:15 | 39.82381 | 21.66752 | 39019 ft | 499 kts | 142° |
| 2026-04-26 18:15 | 39.77012 | 21.72487 | 39018 ft | 499 kts | 142° |
| 2026-04-26 18:16 | 39.71674 | 21.78177 | 39008 ft | 499 kts | 142° |
| 2026-04-26 18:16 | 39.63608 | 21.86753 | 39010 ft | 499 kts | 142° |
| 2026-04-26 18:17 | 39.58223 | 21.92464 | 39020 ft | 500 kts | 142° |
| 2026-04-26 18:17 | 39.52830 | 21.98171 | 39025 ft | 500 kts | 142° |
| 2026-04-26 18:18 | 39.47466 | 22.03837 | 39022 ft | 501 kts | 142° |
| 2026-04-26 18:18 | 39.42063 | 22.09530 | 39024 ft | 501 kts | 142° |
| 2026-04-26 18:19 | 39.36645 | 22.15230 | 39018 ft | 501 kts | 142° |
| 2026-04-26 18:19 | 39.31218 | 22.20926 | 39030 ft | 502 kts | 142° |
| 2026-04-26 18:20 | 39.25827 | 22.26572 | 39027 ft | 502 kts | 142° |
| 2026-04-26 18:20 | 39.21308 | 22.31297 | 39031 ft | 502 kts | 142° |
| 2026-04-26 18:21 | 39.14950 | 22.37931 | 39031 ft | 503 kts | 142° |
| 2026-04-26 18:21 | 39.09507 | 22.43597 | 39033 ft | 503 kts | 142° |
| 2026-04-26 18:22 | 39.04087 | 22.49228 | 39029 ft | 503 kts | 142° |
| 2026-04-26 18:22 | 38.98632 | 22.54883 | 39030 ft | 503 kts | 142° |
| 2026-04-26 18:23 | 38.93172 | 22.60532 | 39034 ft | 503 kts | 142° |
| 2026-04-26 18:23 | 38.87746 | 22.66136 | 39030 ft | 503 kts | 142° |
| 2026-04-26 18:24 | 38.82288 | 22.71760 | 39030 ft | 503 kts | 142° |
| 2026-04-26 18:24 | 38.76820 | 22.77383 | 39029 ft | 503 kts | 142° |
| 2026-04-26 18:25 | 38.71392 | 22.82954 | 39027 ft | 503 kts | 143° |
| 2026-04-26 18:25 | 38.65923 | 22.88555 | 39014 ft | 504 kts | 143° |
| 2026-04-26 18:26 | 38.60436 | 22.94164 | 39014 ft | 504 kts | 143° |
| 2026-04-26 18:26 | 38.54934 | 22.99777 | 39025 ft | 505 kts | 143° |
| 2026-04-26 18:27 | 38.49470 | 23.05339 | 39025 ft | 506 kts | 142° |
| 2026-04-26 18:27 | 38.43948 | 23.10949 | 39028 ft | 507 kts | 142° |
| 2026-04-26 18:28 | 38.38430 | 23.16545 | 39036 ft | 507 kts | 142° |
| 2026-04-26 18:28 | 38.32918 | 23.22123 | 39034 ft | 507 kts | 142° |
| 2026-04-26 18:29 | 38.27375 | 23.27721 | 39034 ft | 508 kts | 142° |
| 2026-04-26 18:29 | 38.21835 | 23.33305 | 39032 ft | 508 kts | 142° |
| 2026-04-26 18:30 | 38.16288 | 23.38884 | 39030 ft | 508 kts | 142° |
| 2026-04-26 18:30 | 38.10788 | 23.44407 | 39026 ft | 507 kts | 142° |
| 2026-04-26 18:31 | 38.05243 | 23.49962 | 39024 ft | 507 kts | 143° |
| 2026-04-26 18:31 | 37.99692 | 23.55513 | 39019 ft | 507 kts | 143° |
| 2026-04-26 18:32 | 37.94149 | 23.61044 | 39016 ft | 507 kts | 143° |
| 2026-04-26 18:32 | 37.88623 | 23.66547 | 39021 ft | 507 kts | 143° |
| 2026-04-26 18:33 | 37.83069 | 23.72069 | 39038 ft | 507 kts | 142° |
| 2026-04-26 18:33 | 37.77502 | 23.77591 | 39038 ft | 508 kts | 142° |
| 2026-04-26 18:34 | 37.71964 | 23.83075 | 39036 ft | 508 kts | 142° |
| 2026-04-26 18:34 | 37.66393 | 23.88579 | 39036 ft | 509 kts | 142° |
| 2026-04-26 18:35 | 37.60812 | 23.94084 | 39036 ft | 509 kts | 142° |
| 2026-04-26 18:35 | 37.55228 | 23.99580 | 39033 ft | 509 kts | 142° |
| 2026-04-26 18:36 | 37.49640 | 24.05070 | 39039 ft | 509 kts | 142° |
| 2026-04-26 18:36 | 37.44072 | 24.10529 | 39039 ft | 509 kts | 142° |
| 2026-04-26 18:37 | 37.38470 | 24.16012 | 39035 ft | 509 kts | 142° |
| 2026-04-26 18:37 | 37.32870 | 24.21480 | 39036 ft | 510 kts | 142° |
| 2026-04-26 18:38 | 37.27263 | 24.26946 | 39037 ft | 510 kts | 142° |
| 2026-04-26 18:38 | 37.21685 | 24.32372 | 39035 ft | 510 kts | 142° |
| 2026-04-26 18:39 | 37.16065 | 24.37830 | 39038 ft | 510 kts | 142° |
| 2026-04-26 18:39 | 37.10449 | 24.43273 | 39042 ft | 511 kts | 142° |
| 2026-04-26 18:40 | 37.04812 | 24.48726 | 39045 ft | 511 kts | 142° |
| 2026-04-26 18:40 | 36.99215 | 24.54129 | 39048 ft | 511 kts | 142° |
| 2026-04-26 18:41 | 36.93566 | 24.59572 | 39046 ft | 511 kts | 142° |
| 2026-04-26 18:41 | 36.87920 | 24.65003 | 39047 ft | 511 kts | 142° |
| 2026-04-26 18:42 | 36.82269 | 24.70426 | 39046 ft | 512 kts | 142° |
| 2026-04-26 18:42 | 36.76651 | 24.75808 | 39045 ft | 512 kts | 142° |
| 2026-04-26 18:43 | 36.70994 | 24.81218 | 39045 ft | 512 kts | 142° |
| 2026-04-26 18:43 | 36.65327 | 24.86627 | 39045 ft | 513 kts | 142° |
| 2026-04-26 18:44 | 36.59683 | 24.92003 | 39046 ft | 513 kts | 142° |
| 2026-04-26 18:44 | 36.54955 | 24.96500 | 39044 ft | 513 kts | 142° |
| 2026-04-26 18:45 | 36.49267 | 25.01899 | 39044 ft | 514 kts | 142° |
| 2026-04-26 18:45 | 36.43571 | 25.07296 | 39042 ft | 514 kts | 142° |
| 2026-04-26 18:46 | 36.37906 | 25.12653 | 39037 ft | 514 kts | 142° |
| 2026-04-26 18:46 | 36.32206 | 25.18034 | 39034 ft | 514 kts | 142° |
| 2026-04-26 18:47 | 36.26506 | 25.23404 | 39032 ft | 515 kts | 142° |
| 2026-04-26 18:47 | 36.20799 | 25.28771 | 39032 ft | 515 kts | 142° |
| 2026-04-26 18:48 | 36.15079 | 25.34140 | 39030 ft | 515 kts | 142° |
| 2026-04-26 18:48 | 36.09393 | 25.39467 | 39035 ft | 515 kts | 142° |
| 2026-04-26 18:49 | 36.03669 | 25.44820 | 39040 ft | 516 kts | 142° |
| 2026-04-26 18:49 | 35.97928 | 25.50178 | 39037 ft | 517 kts | 142° |
| 2026-04-26 18:50 | 35.92214 | 25.55502 | 39038 ft | 518 kts | 142° |
| 2026-04-26 18:50 | 35.86444 | 25.60867 | 39039 ft | 518 kts | 142° |
| 2026-04-26 18:51 | 35.80663 | 25.66233 | 39039 ft | 519 kts | 142° |
| 2026-04-26 18:51 | 35.74912 | 25.71561 | 39038 ft | 520 kts | 142° |
| 2026-04-26 18:52 | 35.69121 | 25.76916 | 39040 ft | 520 kts | 143° |
| 2026-04-26 18:52 | 35.63343 | 25.82248 | 39039 ft | 521 kts | 143° |
| 2026-04-26 18:53 | 35.57553 | 25.87583 | 39042 ft | 521 kts | 143° |
| 2026-04-26 18:53 | 35.51729 | 25.92938 | 39042 ft | 521 kts | 143° |
| 2026-04-26 18:54 | 35.45907 | 25.98282 | 39039 ft | 521 kts | 143° |
| 2026-04-26 18:54 | 35.40094 | 26.03608 | 39040 ft | 521 kts | 143° |
| 2026-04-26 18:55 | 35.34320 | 26.08889 | 39033 ft | 521 kts | 143° |
| 2026-04-26 18:55 | 35.28491 | 26.14209 | 39027 ft | 522 kts | 143° |
| 2026-04-26 18:56 | 35.22664 | 26.19518 | 39022 ft | 522 kts | 143° |
| 2026-04-26 18:56 | 35.16853 | 26.24803 | 39021 ft | 523 kts | 143° |
| 2026-04-26 18:57 | 35.11987 | 26.29221 | 39012 ft | 523 kts | 143° |
| 2026-04-26 18:57 | 35.05173 | 26.35397 | 39014 ft | 524 kts | 143° |
| 2026-04-26 18:58 | 34.99313 | 26.40697 | 39013 ft | 525 kts | 143° |
| 2026-04-26 18:58 | 34.93429 | 26.46010 | 39012 ft | 525 kts | 143° |
| 2026-04-26 18:59 | 34.87543 | 26.51315 | 39012 ft | 526 kts | 143° |
| 2026-04-26 18:59 | 34.81687 | 26.56583 | 39005 ft | 526 kts | 143° |
| 2026-04-26 19:00 | 34.75792 | 26.61876 | 39006 ft | 526 kts | 143° |
| 2026-04-26 19:00 | 34.69890 | 26.67166 | 39001 ft | 527 kts | 144° |
| 2026-04-26 19:01 | 34.64015 | 26.72422 | 38999 ft | 527 kts | 144° |
| 2026-04-26 19:01 | 34.58091 | 26.77712 | 39001 ft | 528 kts | 144° |
| 2026-04-26 19:02 | 34.52165 | 26.82995 | 39005 ft | 529 kts | 144° |
| 2026-04-26 19:02 | 34.47222 | 26.87395 | 39002 ft | 529 kts | 144° |
| 2026-04-26 19:03 | 34.40274 | 26.93566 | 39007 ft | 529 kts | 144° |
| 2026-04-26 19:03 | 34.34361 | 26.98809 | 39006 ft | 530 kts | 144° |
| 2026-04-26 19:04 | 34.28406 | 27.04080 | 39004 ft | 530 kts | 144° |
| 2026-04-26 19:04 | 34.22478 | 27.09319 | 39000 ft | 529 kts | 144° |
| 2026-04-26 19:05 | 34.13744 | 27.17024 | 38991 ft | 530 kts | 144° |
| 2026-04-26 19:06 | 34.07783 | 27.22273 | 38989 ft | 530 kts | 144° |
| 2026-04-26 19:06 | 34.01808 | 27.27525 | 38984 ft | 531 kts | 144° |
| 2026-04-26 19:07 | 33.95746 | 27.32514 | 38988 ft | 531 kts | 150° |
| 2026-04-26 19:07 | 33.89162 | 27.36569 | 38984 ft | 529 kts | 159° |
| 2026-04-26 19:08 | 33.82391 | 27.40100 | 38987 ft | 530 kts | 158° |
| 2026-04-26 19:08 | 33.75675 | 27.43661 | 38991 ft | 531 kts | 158° |
| 2026-04-26 19:09 | 33.68889 | 27.47254 | 38997 ft | 531 kts | 159° |
| 2026-04-26 19:09 | 33.62128 | 27.50823 | 38995 ft | 530 kts | 159° |
| 2026-04-26 19:10 | 33.55378 | 27.54379 | 38997 ft | 530 kts | 159° |
| 2026-04-26 19:10 | 33.48660 | 27.57912 | 38997 ft | 529 kts | 159° |
| 2026-04-26 19:11 | 33.41924 | 27.61449 | 38992 ft | 528 kts | 159° |
| 2026-04-26 19:11 | 33.35185 | 27.64981 | 38990 ft | 527 kts | 159° |
| 2026-04-26 19:12 | 33.28505 | 27.68477 | 38989 ft | 526 kts | 159° |
| 2026-04-26 19:12 | 33.21801 | 27.71979 | 38984 ft | 524 kts | 160° |
| 2026-04-26 19:13 | 33.15105 | 27.75471 | 38979 ft | 524 kts | 160° |
| 2026-04-26 19:13 | 33.08461 | 27.78930 | 38980 ft | 523 kts | 160° |
| 2026-04-26 19:14 | 33.01785 | 27.82400 | 38981 ft | 522 kts | 160° |
| 2026-04-26 19:14 | 32.95110 | 27.85864 | 38981 ft | 522 kts | 160° |
| 2026-04-26 19:15 | 32.88450 | 27.89314 | 38986 ft | 522 kts | 161° |
| 2026-04-26 19:15 | 32.81815 | 27.92746 | 38978 ft | 522 kts | 161° |
| 2026-04-26 19:16 | 32.75145 | 27.96190 | 38981 ft | 522 kts | 161° |
| 2026-04-26 19:16 | 32.68473 | 27.99629 | 38983 ft | 522 kts | 161° |
| 2026-04-26 19:17 | 32.61793 | 28.03067 | 38987 ft | 523 kts | 162° |
| 2026-04-26 19:17 | 32.55151 | 28.06480 | 38982 ft | 523 kts | 162° |
| 2026-04-26 19:18 | 32.48457 | 28.09914 | 38986 ft | 524 kts | 162° |
| 2026-04-26 19:18 | 32.41734 | 28.13357 | 38984 ft | 525 kts | 162° |
| 2026-04-26 19:19 | 32.35008 | 28.16795 | 38984 ft | 527 kts | 162° |
| 2026-04-26 19:19 | 32.28298 | 28.20221 | 38993 ft | 528 kts | 162° |
| 2026-04-26 19:20 | 32.21550 | 28.23660 | 38992 ft | 530 kts | 162° |
| 2026-04-26 19:20 | 32.14762 | 28.27114 | 38986 ft | 531 kts | 162° |
| 2026-04-26 19:21 | 32.07968 | 28.30566 | 38992 ft | 532 kts | 162° |
| 2026-04-26 19:21 | 32.01456 | 28.34758 | 38986 ft | 546 kts | 146° |
| 2026-04-26 19:21 | 31.98665 | 28.37817 | 38991 ft | 552 kts | 135° |
| 2026-04-26 19:22 | 31.96150 | 28.41260 | 38987 ft | 554 kts | 133° |
| 2026-04-26 19:22 | 31.91082 | 28.48091 | 38993 ft | 553 kts | 136° |
| 2026-04-26 19:23 | 31.85782 | 28.54654 | 38995 ft | 552 kts | 138° |
| 2026-04-26 19:23 | 31.80450 | 28.61075 | 38994 ft | 551 kts | 139° |
| 2026-04-26 19:24 | 31.75071 | 28.67530 | 38996 ft | 550 kts | 139° |
| 2026-04-26 19:24 | 31.67055 | 28.77133 | 38993 ft | 549 kts | 139° |
| 2026-04-26 19:25 | 31.63472 | 28.81417 | 38997 ft | 548 kts | 139° |
| 2026-04-26 19:25 | 31.56362 | 28.89902 | 38985 ft | 547 kts | 140° |
| 2026-04-26 19:26 | 31.51031 | 28.96251 | 38980 ft | 546 kts | 140° |
| 2026-04-26 19:26 | 31.45715 | 29.02572 | 38975 ft | 546 kts | 140° |
| 2026-04-26 19:27 | 31.40371 | 29.08914 | 38982 ft | 547 kts | 140° |
| 2026-04-26 19:27 | 31.35016 | 29.15258 | 38978 ft | 547 kts | 140° |
| 2026-04-26 19:28 | 31.29690 | 29.21557 | 38977 ft | 547 kts | 140° |
| 2026-04-26 19:28 | 31.24311 | 29.27909 | 38980 ft | 548 kts | 140° |
| 2026-04-26 19:29 | 31.18941 | 29.34239 | 38986 ft | 548 kts | 141° |
| 2026-04-26 19:29 | 31.13572 | 29.40558 | 38988 ft | 548 kts | 141° |
| 2026-04-26 19:30 | 31.08219 | 29.46846 | 38988 ft | 548 kts | 141° |
| 2026-04-26 19:30 | 31.04617 | 29.51072 | 38986 ft | 548 kts | 141° |
| 2026-04-26 19:31 | 30.98369 | 29.58390 | 38986 ft | 547 kts | 141° |
| 2026-04-26 19:31 | 30.92110 | 29.65706 | 38985 ft | 547 kts | 141° |
| 2026-04-26 19:32 | 30.87649 | 29.70912 | 38981 ft | 546 kts | 141° |
| 2026-04-26 19:32 | 30.82273 | 29.77176 | 38971 ft | 546 kts | 141° |
| 2026-04-26 19:33 | 30.76900 | 29.83425 | 38966 ft | 545 kts | 142° |
| 2026-04-26 19:33 | 30.71532 | 29.89659 | 38966 ft | 546 kts | 142° |
| 2026-04-26 19:34 | 30.66152 | 29.95896 | 38962 ft | 546 kts | 142° |
| 2026-04-26 19:34 | 30.60802 | 30.02088 | 38968 ft | 547 kts | 142° |
| 2026-04-26 19:35 | 30.55402 | 30.08327 | 38967 ft | 547 kts | 142° |
| 2026-04-26 19:35 | 30.50000 | 30.14560 | 38973 ft | 548 kts | 142° |
| 2026-04-26 19:36 | 30.45493 | 30.19750 | 38971 ft | 549 kts | 142° |
| 2026-04-26 19:36 | 30.39187 | 30.27002 | 38980 ft | 549 kts | 142° |
| 2026-04-26 19:37 | 30.33750 | 30.33243 | 38980 ft | 550 kts | 142° |
| 2026-04-26 19:37 | 30.28305 | 30.39483 | 38984 ft | 550 kts | 143° |
| 2026-04-26 19:38 | 30.22856 | 30.45717 | 38982 ft | 550 kts | 143° |
| 2026-04-26 19:38 | 30.17433 | 30.51911 | 38984 ft | 550 kts | 143° |
| 2026-04-26 19:39 | 30.11976 | 30.58134 | 38986 ft | 550 kts | 143° |
| 2026-04-26 19:39 | 30.06516 | 30.64351 | 38981 ft | 550 kts | 143° |
| 2026-04-26 19:40 | 30.01101 | 30.70506 | 38984 ft | 550 kts | 143° |
| 2026-04-26 19:40 | 29.95631 | 30.76712 | 38985 ft | 549 kts | 143° |
| 2026-04-26 19:41 | 29.90179 | 30.82889 | 38979 ft | 549 kts | 144° |
| 2026-04-26 19:41 | 29.85641 | 30.88022 | 38975 ft | 549 kts | 144° |
| 2026-04-26 19:42 | 29.79263 | 30.95226 | 38980 ft | 549 kts | 144° |
| 2026-04-26 19:42 | 29.73832 | 31.01348 | 38976 ft | 549 kts | 144° |
| 2026-04-26 19:43 | 29.68368 | 31.07499 | 38978 ft | 549 kts | 144° |
| 2026-04-26 19:43 | 29.62923 | 31.13617 | 38984 ft | 549 kts | 144° |
| 2026-04-26 19:44 | 29.57452 | 31.19755 | 38992 ft | 549 kts | 144° |
| 2026-04-26 19:44 | 29.51974 | 31.25892 | 39000 ft | 550 kts | 144° |
| 2026-04-26 19:45 | 29.46490 | 31.32026 | 39009 ft | 550 kts | 144° |
| 2026-04-26 19:45 | 29.41033 | 31.38119 | 39009 ft | 550 kts | 144° |
| 2026-04-26 19:46 | 29.35549 | 31.44234 | 39016 ft | 549 kts | 144° |
| 2026-04-26 19:46 | 29.30064 | 31.50339 | 39020 ft | 549 kts | 144° |
| 2026-04-26 19:47 | 29.25509 | 31.55402 | 39017 ft | 548 kts | 144° |
| 2026-04-26 19:47 | 29.19100 | 31.62515 | 39017 ft | 547 kts | 144° |
| 2026-04-26 19:48 | 29.13667 | 31.68534 | 39017 ft | 546 kts | 144° |
| 2026-04-26 19:48 | 29.08208 | 31.74573 | 39015 ft | 546 kts | 144° |
| 2026-04-26 19:49 | 29.02731 | 31.80622 | 39015 ft | 545 kts | 144° |
| 2026-04-26 19:49 | 28.97266 | 31.86648 | 39014 ft | 544 kts | 145° |
| 2026-04-26 19:50 | 28.91859 | 31.92601 | 39005 ft | 544 kts | 145° |
| 2026-04-26 19:50 | 28.86405 | 31.98597 | 39024 ft | 543 kts | 145° |
| 2026-04-26 19:51 | 28.80958 | 32.04575 | 39027 ft | 544 kts | 145° |
| 2026-04-26 19:51 | 28.75494 | 32.10563 | 39032 ft | 544 kts | 145° |
| 2026-04-26 19:52 | 28.70029 | 32.16544 | 39038 ft | 544 kts | 145° |
| 2026-04-26 19:52 | 28.64565 | 32.22514 | 39044 ft | 545 kts | 145° |
| 2026-04-26 19:53 | 28.59125 | 32.28449 | 39035 ft | 545 kts | 146° |
| 2026-04-26 19:53 | 28.53636 | 32.34429 | 39041 ft | 545 kts | 146° |
| 2026-04-26 19:54 | 28.48145 | 32.40400 | 39040 ft | 546 kts | 146° |
| 2026-04-26 19:54 | 28.42671 | 32.46344 | 39041 ft | 547 kts | 146° |
| 2026-04-26 19:55 | 28.37155 | 32.52325 | 39031 ft | 548 kts | 146° |
| 2026-04-26 19:55 | 28.31619 | 32.58320 | 39020 ft | 549 kts | 146° |
| 2026-04-26 19:56 | 28.26113 | 32.64273 | 39031 ft | 549 kts | 146° |
| 2026-04-26 19:56 | 28.20575 | 32.70252 | 39016 ft | 549 kts | 146° |
| 2026-04-26 19:57 | 28.15042 | 32.76215 | 39007 ft | 549 kts | 146° |
| 2026-04-26 19:57 | 28.09498 | 32.82182 | 39000 ft | 550 kts | 146° |
| 2026-04-26 19:58 | 28.03936 | 32.88157 | 39001 ft | 550 kts | 146° |
| 2026-04-26 19:58 | 27.98419 | 32.94080 | 38994 ft | 549 kts | 146° |
| 2026-04-26 19:59 | 27.92863 | 33.00034 | 38985 ft | 548 kts | 146° |
| 2026-04-26 19:59 | 27.87330 | 33.05955 | 38969 ft | 547 kts | 146° |
| 2026-04-26 20:00 | 27.81827 | 33.11833 | 38961 ft | 546 kts | 146° |
| 2026-04-26 20:00 | 27.76305 | 33.17721 | 38951 ft | 546 kts | 146° |
| 2026-04-26 20:01 | 27.70762 | 33.23625 | 38943 ft | 547 kts | 146° |
| 2026-04-26 20:01 | 27.65223 | 33.29515 | 38943 ft | 548 kts | 146° |
| 2026-04-26 20:02 | 27.59654 | 33.35429 | 38944 ft | 549 kts | 146° |
| 2026-04-26 20:02 | 27.55028 | 33.40335 | 38945 ft | 549 kts | 146° |
| 2026-04-26 20:03 | 27.48544 | 33.47202 | 38960 ft | 551 kts | 146° |
| 2026-04-26 20:03 | 27.42957 | 33.53110 | 38960 ft | 551 kts | 146° |
| 2026-04-26 20:04 | 27.37334 | 33.59048 | 38950 ft | 552 kts | 146° |
| 2026-04-26 20:04 | 27.31767 | 33.64922 | 38950 ft | 552 kts | 146° |
| 2026-04-26 20:05 | 27.26163 | 33.70827 | 38946 ft | 551 kts | 147° |
| 2026-04-26 20:05 | 27.20685 | 33.76887 | 38938 ft | 560 kts | 139° |
| 2026-04-26 20:06 | 27.16266 | 33.84272 | 38935 ft | 578 kts | 123° |
| 2026-04-26 20:06 | 27.13126 | 33.92680 | 38931 ft | 585 kts | 117° |
| 2026-04-26 20:07 | 27.10144 | 34.01108 | 38928 ft | 584 kts | 118° |
| 2026-04-26 20:07 | 27.07128 | 34.09562 | 38916 ft | 584 kts | 118° |
| 2026-04-26 20:08 | 27.04094 | 34.18044 | 38911 ft | 584 kts | 118° |
| 2026-04-26 20:08 | 27.01063 | 34.26500 | 38912 ft | 584 kts | 118° |
| 2026-04-26 20:09 | 26.98041 | 34.34910 | 38910 ft | 584 kts | 118° |
| 2026-04-26 20:09 | 26.94996 | 34.43368 | 38909 ft | 584 kts | 118° |
| 2026-04-26 20:10 | 26.91948 | 34.51815 | 38915 ft | 584 kts | 118° |
| 2026-04-26 20:10 | 26.88914 | 34.60203 | 38912 ft | 584 kts | 118° |
| 2026-04-26 20:11 | 26.85860 | 34.68632 | 38912 ft | 584 kts | 118° |
| 2026-04-26 20:12 | 26.81270 | 34.81261 | 38908 ft | 583 kts | 118° |
| 2026-04-26 20:12 | 26.78198 | 34.89691 | 38908 ft | 583 kts | 118° |
| 2026-04-26 20:13 | 26.75151 | 34.98038 | 38906 ft | 583 kts | 118° |
| 2026-04-26 20:13 | 26.72077 | 35.06446 | 38908 ft | 583 kts | 118° |
| 2026-04-26 20:14 | 26.68994 | 35.14860 | 38906 ft | 583 kts | 118° |
| 2026-04-26 20:14 | 26.65930 | 35.23204 | 38908 ft | 583 kts | 118° |
| 2026-04-26 20:15 | 26.62850 | 35.31576 | 38905 ft | 583 kts | 118° |
| 2026-04-26 20:15 | 26.59754 | 35.39972 | 38906 ft | 582 kts | 118° |
| 2026-04-26 20:16 | 26.57182 | 35.46933 | 38904 ft | 582 kts | 118° |
| 2026-04-26 20:16 | 26.53529 | 35.56619 | 38898 ft | 581 kts | 120° |
| 2026-04-26 20:17 | 26.50874 | 35.63532 | 38892 ft | 581 kts | 120° |
| 2026-04-26 20:17 | 26.47694 | 35.71826 | 38889 ft | 581 kts | 119° |
| 2026-04-26 20:18 | 26.44517 | 35.80112 | 38882 ft | 580 kts | 119° |
| 2026-04-26 20:18 | 26.41353 | 35.88350 | 38877 ft | 580 kts | 119° |
| 2026-04-26 20:19 | 26.38166 | 35.96628 | 38875 ft | 581 kts | 119° |
| 2026-04-26 20:19 | 26.34965 | 36.04926 | 38868 ft | 581 kts | 119° |
| 2026-04-26 20:20 | 26.31770 | 36.13194 | 38868 ft | 581 kts | 119° |
| 2026-04-26 20:20 | 26.28582 | 36.21426 | 38873 ft | 581 kts | 119° |
| 2026-04-26 20:21 | 26.25370 | 36.29702 | 38879 ft | 581 kts | 119° |
| 2026-04-26 20:21 | 26.22156 | 36.37967 | 38886 ft | 581 kts | 119° |
| 2026-04-26 20:22 | 26.18935 | 36.46235 | 38883 ft | 581 kts | 119° |
| 2026-04-26 20:22 | 26.15304 | 36.54154 | 38882 ft | 575 kts | 126° |
| 2026-04-26 20:23 | 26.11443 | 36.61977 | 38880 ft | 575 kts | 125° |
| 2026-04-26 20:23 | 26.07595 | 36.69792 | 38878 ft | 575 kts | 125° |
| 2026-04-26 20:24 | 26.03744 | 36.77591 | 38872 ft | 575 kts | 125° |
| 2026-04-26 20:24 | 25.99901 | 36.85355 | 38872 ft | 575 kts | 125° |
| 2026-04-26 20:25 | 25.96044 | 36.93135 | 38872 ft | 574 kts | 126° |
| 2026-04-26 20:25 | 25.92181 | 37.00915 | 38891 ft | 574 kts | 126° |
| 2026-04-26 20:26 | 25.88345 | 37.08626 | 38887 ft | 573 kts | 126° |
| 2026-04-26 20:26 | 25.84484 | 37.16373 | 38894 ft | 572 kts | 126° |
| 2026-04-26 20:27 | 25.80627 | 37.24101 | 38898 ft | 571 kts | 126° |
| 2026-04-26 20:27 | 25.76800 | 37.31781 | 38899 ft | 570 kts | 126° |
| 2026-04-26 20:28 | 25.72975 | 37.39472 | 38903 ft | 569 kts | 126° |
| 2026-04-26 20:28 | 25.69145 | 37.47152 | 38918 ft | 568 kts | 126° |
| 2026-04-26 20:29 | 25.65312 | 37.54824 | 38920 ft | 567 kts | 126° |
| 2026-04-26 20:29 | 25.61483 | 37.62475 | 38921 ft | 566 kts | 126° |
| 2026-04-26 20:30 | 25.57673 | 37.70072 | 38918 ft | 566 kts | 126° |
| 2026-04-26 20:30 | 25.53841 | 37.77703 | 38918 ft | 566 kts | 126° |
| 2026-04-26 20:31 | 25.50006 | 37.85327 | 38914 ft | 565 kts | 126° |
| 2026-04-26 20:31 | 25.46177 | 37.92926 | 38914 ft | 565 kts | 126° |
| 2026-04-26 20:32 | 25.42363 | 38.00481 | 38906 ft | 565 kts | 126° |
| 2026-04-26 20:32 | 25.38527 | 38.08068 | 38917 ft | 565 kts | 126° |
| 2026-04-26 20:33 | 25.34693 | 38.15642 | 38916 ft | 564 kts | 126° |
| 2026-04-26 20:33 | 25.30858 | 38.23202 | 38920 ft | 563 kts | 126° |
| 2026-04-26 20:34 | 25.27038 | 38.30721 | 38913 ft | 562 kts | 126° |
| 2026-04-26 20:34 | 25.23208 | 38.38249 | 38915 ft | 561 kts | 126° |
| 2026-04-26 20:35 | 25.19380 | 38.45758 | 38897 ft | 560 kts | 126° |
| 2026-04-26 20:35 | 25.15558 | 38.53245 | 38916 ft | 559 kts | 126° |
| 2026-04-26 20:36 | 25.11750 | 38.60678 | 38922 ft | 559 kts | 126° |
| 2026-04-26 20:36 | 25.07918 | 38.68146 | 38932 ft | 559 kts | 126° |
| 2026-04-26 20:37 | 25.04084 | 38.75606 | 38937 ft | 559 kts | 125° |
| 2026-04-26 20:37 | 25.00244 | 38.83070 | 38956 ft | 559 kts | 125° |
| 2026-04-26 20:38 | 24.96421 | 38.90487 | 38953 ft | 558 kts | 125° |
| 2026-04-26 20:38 | 24.92577 | 38.97928 | 38958 ft | 558 kts | 125° |
| 2026-04-26 20:39 | 24.88726 | 39.05364 | 38960 ft | 558 kts | 125° |
| 2026-04-26 20:39 | 24.84871 | 39.12798 | 38957 ft | 558 kts | 125° |
| 2026-04-26 20:40 | 24.81043 | 39.20169 | 38962 ft | 558 kts | 125° |
| 2026-04-26 20:40 | 24.77189 | 39.27583 | 38972 ft | 557 kts | 125° |
| 2026-04-26 20:41 | 24.73333 | 39.34989 | 38978 ft | 557 kts | 125° |
| 2026-04-26 20:41 | 24.69464 | 39.42408 | 38985 ft | 557 kts | 125° |
| 2026-04-26 20:42 | 24.65632 | 39.49747 | 38988 ft | 556 kts | 125° |
| 2026-04-26 20:42 | 24.61771 | 39.57124 | 38993 ft | 556 kts | 125° |
| 2026-04-26 20:43 | 24.57943 | 39.64466 | 38995 ft | 557 kts | 123° |
| 2026-04-26 20:43 | 24.55042 | 39.72428 | 38993 ft | 566 kts | 108° |
| 2026-04-26 20:44 | 24.53729 | 39.81001 | 38990 ft | 571 kts | 97° |
| 2026-04-26 20:44 | 24.52923 | 39.89674 | 38986 ft | 571 kts | 98° |
| 2026-04-26 20:45 | 24.52081 | 39.98344 | 38983 ft | 571 kts | 98° |
| 2026-04-26 20:45 | 24.51238 | 40.06994 | 38980 ft | 571 kts | 98° |
| 2026-04-26 20:46 | 24.50388 | 40.15681 | 38983 ft | 571 kts | 98° |
| 2026-04-26 20:46 | 24.49539 | 40.24316 | 38983 ft | 571 kts | 98° |
| 2026-04-26 20:47 | 24.48681 | 40.32986 | 38983 ft | 571 kts | 98° |
| 2026-04-26 20:47 | 24.47817 | 40.41663 | 38983 ft | 571 kts | 98° |
| 2026-04-26 20:48 | 24.46949 | 40.50331 | 38989 ft | 570 kts | 98° |
| 2026-04-26 20:48 | 24.46082 | 40.58940 | 38989 ft | 570 kts | 98° |
| 2026-04-26 20:49 | 24.45206 | 40.67588 | 38991 ft | 569 kts | 98° |
| 2026-04-26 20:49 | 24.44324 | 40.76217 | 38989 ft | 568 kts | 98° |
| 2026-04-26 20:50 | 24.43445 | 40.84782 | 38986 ft | 567 kts | 98° |
| 2026-04-26 20:50 | 24.42558 | 40.93375 | 38989 ft | 566 kts | 98° |
| 2026-04-26 20:51 | 24.41666 | 41.01962 | 38984 ft | 566 kts | 98° |
| 2026-04-26 20:51 | 24.40771 | 41.10537 | 38984 ft | 565 kts | 98° |
| 2026-04-26 20:52 | 24.39872 | 41.19116 | 38982 ft | 565 kts | 98° |
| 2026-04-26 20:52 | 24.38975 | 41.27639 | 38988 ft | 566 kts | 98° |
| 2026-04-26 20:53 | 24.38064 | 41.36235 | 38989 ft | 567 kts | 98° |
| 2026-04-26 20:53 | 24.37147 | 41.44845 | 38997 ft | 567 kts | 98° |
| 2026-04-26 20:54 | 24.36231 | 41.53398 | 39000 ft | 568 kts | 98° |
| 2026-04-26 20:54 | 24.35302 | 41.62021 | 39003 ft | 568 kts | 98° |
| 2026-04-26 20:55 | 24.34369 | 41.70644 | 39002 ft | 568 kts | 98° |
| 2026-04-26 20:55 | 24.33430 | 41.79254 | 39005 ft | 568 kts | 99° |
| 2026-04-26 20:56 | 24.31737 | 41.87635 | 39012 ft | 564 kts | 109° |
| 2026-04-26 20:56 | 24.29547 | 41.95874 | 39008 ft | 564 kts | 108° |
| 2026-04-26 20:57 | 24.27370 | 42.04173 | 39014 ft | 564 kts | 109° |
| 2026-04-26 20:57 | 24.25208 | 42.12379 | 39016 ft | 564 kts | 109° |
| 2026-04-26 20:58 | 24.23016 | 42.20664 | 39021 ft | 564 kts | 109° |
| 2026-04-26 20:58 | 24.20828 | 42.28917 | 39024 ft | 564 kts | 109° |
| 2026-04-26 20:59 | 24.18645 | 42.37131 | 39024 ft | 564 kts | 109° |
| 2026-04-26 20:59 | 24.16443 | 42.45400 | 39028 ft | 563 kts | 109° |
| 2026-04-26 21:00 | 24.14259 | 42.53576 | 39028 ft | 563 kts | 109° |
| 2026-04-26 21:00 | 24.12057 | 42.61805 | 39036 ft | 563 kts | 109° |
| 2026-04-26 21:01 | 24.09853 | 42.70019 | 39034 ft | 562 kts | 109° |
| 2026-04-26 21:01 | 24.07644 | 42.78235 | 39038 ft | 562 kts | 109° |
| 2026-04-26 21:02 | 24.05431 | 42.86445 | 39042 ft | 561 kts | 109° |
| 2026-04-26 21:02 | 24.03228 | 42.94599 | 39037 ft | 561 kts | 109° |
| 2026-04-26 21:03 | 24.01009 | 43.02792 | 39041 ft | 561 kts | 109° |
| 2026-04-26 21:03 | 23.98788 | 43.10973 | 39045 ft | 561 kts | 109° |
| 2026-04-26 21:04 | 23.96574 | 43.19107 | 39042 ft | 561 kts | 109° |
| 2026-04-26 21:04 | 23.94342 | 43.27292 | 39043 ft | 561 kts | 109° |
| 2026-04-26 21:05 | 23.92106 | 43.35471 | 39045 ft | 561 kts | 109° |
| 2026-04-26 21:05 | 23.90243 | 43.42274 | 39042 ft | 561 kts | 109° |
| 2026-04-26 21:06 | 23.88002 | 43.50439 | 39034 ft | 561 kts | 109° |
| 2026-04-26 21:06 | 23.85391 | 43.59927 | 39027 ft | 560 kts | 109° |
| 2026-04-26 21:07 | 23.83509 | 43.66750 | 39024 ft | 559 kts | 109° |
| 2026-04-26 21:07 | 23.81276 | 43.74833 | 39011 ft | 559 kts | 109° |
| 2026-04-26 21:08 | 23.79029 | 43.82943 | 39012 ft | 558 kts | 109° |
| 2026-04-26 21:08 | 23.77260 | 43.91209 | 38993 ft | 559 kts | 98° |
| 2026-04-26 21:09 | 23.76596 | 43.99670 | 38984 ft | 558 kts | 95° |
| 2026-04-26 21:09 | 23.75973 | 44.08064 | 38989 ft | 558 kts | 95° |
| 2026-04-26 21:10 | 23.75337 | 44.16510 | 38976 ft | 557 kts | 95° |
| 2026-04-26 21:10 | 23.74699 | 44.24953 | 38987 ft | 557 kts | 95° |
| 2026-04-26 21:11 | 23.74062 | 44.33334 | 38988 ft | 556 kts | 95° |
| 2026-04-26 21:11 | 23.73417 | 44.41764 | 38989 ft | 556 kts | 95° |
| 2026-04-26 21:12 | 23.72768 | 44.50181 | 38989 ft | 556 kts | 95° |
| 2026-04-26 21:12 | 23.72114 | 44.58604 | 38992 ft | 556 kts | 95° |
| 2026-04-26 21:13 | 23.71460 | 44.66963 | 38992 ft | 555 kts | 95° |
| 2026-04-26 21:13 | 23.70797 | 44.75382 | 38988 ft | 555 kts | 95° |
| 2026-04-26 21:14 | 23.70132 | 44.83772 | 38987 ft | 556 kts | 95° |
| 2026-04-26 21:14 | 23.69464 | 44.92138 | 38972 ft | 556 kts | 95° |
| 2026-04-26 21:15 | 23.68787 | 45.00552 | 38978 ft | 556 kts | 95° |
| 2026-04-26 21:15 | 23.68103 | 45.08995 | 38976 ft | 557 kts | 95° |
| 2026-04-26 21:16 | 23.67420 | 45.17379 | 38978 ft | 558 kts | 95° |
| 2026-04-26 21:16 | 23.66726 | 45.25830 | 38976 ft | 559 kts | 95° |
| 2026-04-26 21:17 | 23.66031 | 45.34241 | 38981 ft | 559 kts | 95° |
| 2026-04-26 21:17 | 23.65328 | 45.42694 | 38976 ft | 559 kts | 95° |
| 2026-04-26 21:18 | 23.64621 | 45.51143 | 38974 ft | 559 kts | 95° |
| 2026-04-26 21:18 | 23.63910 | 45.59584 | 38965 ft | 558 kts | 95° |
| 2026-04-26 21:19 | 23.63199 | 45.67962 | 38958 ft | 557 kts | 95° |
| 2026-04-26 21:19 | 23.62480 | 45.76380 | 38955 ft | 556 kts | 95° |
| 2026-04-26 21:20 | 23.61757 | 45.84781 | 38951 ft | 556 kts | 95° |
| 2026-04-26 21:20 | 23.61032 | 45.93166 | 38948 ft | 555 kts | 95° |
| 2026-04-26 21:21 | 23.60306 | 46.01498 | 38954 ft | 555 kts | 95° |
| 2026-04-26 21:21 | 23.59573 | 46.09859 | 38950 ft | 554 kts | 95° |
| 2026-04-26 21:22 | 23.58834 | 46.18238 | 38966 ft | 554 kts | 95° |
| 2026-04-26 21:22 | 23.58092 | 46.26615 | 38963 ft | 554 kts | 95° |
| 2026-04-26 21:23 | 23.56972 | 46.39130 | 38976 ft | 554 kts | 95° |
| 2026-04-26 21:23 | 23.56218 | 46.47487 | 38971 ft | 553 kts | 95° |
| 2026-04-26 21:24 | 23.55461 | 46.55848 | 38969 ft | 553 kts | 95° |
| 2026-04-26 21:24 | 23.54705 | 46.64132 | 38975 ft | 553 kts | 95° |
| 2026-04-26 21:25 | 23.53941 | 46.72483 | 38981 ft | 553 kts | 95° |
| 2026-04-26 21:25 | 23.53171 | 46.80817 | 38969 ft | 553 kts | 95° |
| 2026-04-26 21:26 | 23.52395 | 46.89170 | 38969 ft | 552 kts | 95° |
| 2026-04-26 21:26 | 23.51622 | 46.97455 | 38967 ft | 552 kts | 95° |
| 2026-04-26 21:27 | 23.50839 | 47.05788 | 38962 ft | 552 kts | 95° |
| 2026-04-26 21:27 | 23.50054 | 47.14105 | 38955 ft | 551 kts | 95° |
| 2026-04-26 21:28 | 23.49306 | 47.21981 | 38951 ft | 551 kts | 95° |
| 2026-04-26 21:28 | 23.48512 | 47.30299 | 38951 ft | 551 kts | 95° |
| 2026-04-26 21:29 | 23.47715 | 47.38597 | 38949 ft | 550 kts | 95° |
| 2026-04-26 21:29 | 23.46914 | 47.46886 | 38944 ft | 550 kts | 95° |
| 2026-04-26 21:30 | 23.46114 | 47.55123 | 38940 ft | 550 kts | 96° |
| 2026-04-26 21:30 | 23.45305 | 47.63413 | 38936 ft | 550 kts | 96° |
| 2026-04-26 21:31 | 23.44491 | 47.71705 | 38931 ft | 550 kts | 96° |
| 2026-04-26 21:31 | 23.43673 | 47.79993 | 38930 ft | 550 kts | 96° |
| 2026-04-26 21:32 | 23.42856 | 47.88230 | 38929 ft | 550 kts | 96° |
| 2026-04-26 21:32 | 23.42028 | 47.96529 | 38927 ft | 551 kts | 96° |
| 2026-04-26 21:33 | 23.41197 | 48.04817 | 38921 ft | 551 kts | 96° |
| 2026-04-26 21:33 | 23.40360 | 48.13111 | 38922 ft | 551 kts | 96° |
| 2026-04-26 21:34 | 23.39519 | 48.21405 | 38916 ft | 550 kts | 96° |
| 2026-04-26 21:34 | 23.38680 | 48.29640 | 38910 ft | 550 kts | 96° |
| 2026-04-26 21:35 | 23.38055 | 48.37952 | 38906 ft | 549 kts | 91° |
| 2026-04-26 21:35 | 23.37738 | 48.46264 | 38905 ft | 549 kts | 91° |
| 2026-04-26 21:36 | 23.37460 | 48.53165 | 38905 ft | 549 kts | 91° |
| 2026-04-26 21:36 | 23.37061 | 48.62865 | 38901 ft | 549 kts | 91° |
| 2026-04-26 21:37 | 23.36717 | 48.71129 | 38899 ft | 549 kts | 91° |
| 2026-04-26 21:37 | 23.36367 | 48.79432 | 38901 ft | 548 kts | 91° |
| 2026-04-26 21:38 | 23.36013 | 48.87725 | 38894 ft | 548 kts | 91° |
| 2026-04-26 21:38 | 23.35655 | 48.96008 | 38896 ft | 548 kts | 91° |
| 2026-04-26 21:39 | 23.35294 | 49.04259 | 38895 ft | 548 kts | 92° |
| 2026-04-26 21:39 | 23.34336 | 49.12497 | 38889 ft | 549 kts | 98° |
| 2026-04-26 21:40 | 23.33148 | 49.20716 | 38888 ft | 549 kts | 98° |
| 2026-04-26 21:40 | 23.31981 | 49.28882 | 38892 ft | 550 kts | 98° |
| 2026-04-26 21:41 | 23.30797 | 49.37111 | 38895 ft | 550 kts | 98° |
| 2026-04-26 21:41 | 23.29603 | 49.45350 | 38895 ft | 550 kts | 98° |
| 2026-04-26 21:42 | 23.28414 | 49.53519 | 38894 ft | 550 kts | 98° |
| 2026-04-26 21:42 | 23.27213 | 49.61740 | 38895 ft | 550 kts | 98° |
| 2026-04-26 21:43 | 23.26007 | 49.69969 | 38890 ft | 550 kts | 98° |
| 2026-04-26 21:43 | 23.24807 | 49.78124 | 38886 ft | 549 kts | 98° |
| 2026-04-26 21:44 | 23.23596 | 49.86329 | 38888 ft | 549 kts | 98° |
| 2026-04-26 21:44 | 23.22379 | 49.94536 | 38887 ft | 549 kts | 98° |
| 2026-04-26 21:45 | 23.21157 | 50.02748 | 38889 ft | 549 kts | 98° |
| 2026-04-26 21:45 | 23.19942 | 50.10891 | 38887 ft | 549 kts | 98° |
| 2026-04-26 21:46 | 23.18712 | 50.19094 | 38884 ft | 549 kts | 98° |
| 2026-04-26 21:46 | 23.17478 | 50.27298 | 38884 ft | 549 kts | 98° |
| 2026-04-26 21:47 | 23.16249 | 50.35445 | 38887 ft | 549 kts | 98° |
| 2026-04-26 21:47 | 23.15005 | 50.43651 | 38887 ft | 549 kts | 98° |
| 2026-04-26 21:48 | 23.13767 | 50.51796 | 38887 ft | 549 kts | 98° |
| 2026-04-26 21:48 | 23.12517 | 50.59988 | 38882 ft | 549 kts | 98° |
| 2026-04-26 21:49 | 23.11261 | 50.68189 | 38883 ft | 549 kts | 98° |
| 2026-04-26 21:49 | 23.10003 | 50.76375 | 38880 ft | 550 kts | 98° |
| 2026-04-26 21:50 | 23.08953 | 50.83187 | 38883 ft | 550 kts | 98° |
| 2026-04-26 21:50 | 23.07479 | 50.92714 | 38881 ft | 550 kts | 98° |
| 2026-04-26 21:51 | 23.06205 | 51.00920 | 38886 ft | 550 kts | 98° |
| 2026-04-26 21:51 | 23.04928 | 51.09113 | 38880 ft | 550 kts | 98° |
| 2026-04-26 21:52 | 23.03647 | 51.17303 | 38883 ft | 550 kts | 98° |
| 2026-04-26 21:52 | 23.02363 | 51.25487 | 38881 ft | 549 kts | 98° |
| 2026-04-26 21:53 | 23.01083 | 51.33616 | 38878 ft | 549 kts | 98° |
| 2026-04-26 21:53 | 22.99791 | 51.41789 | 38870 ft | 548 kts | 98° |
| 2026-04-26 21:54 | 22.98507 | 51.49892 | 38872 ft | 548 kts | 98° |
| 2026-04-26 21:54 | 22.97210 | 51.58044 | 38869 ft | 547 kts | 98° |
| 2026-04-26 21:55 | 22.95910 | 51.66186 | 38862 ft | 547 kts | 98° |
| 2026-04-26 21:55 | 22.94827 | 51.72949 | 38862 ft | 546 kts | 98° |
| 2026-04-26 21:56 | 22.93311 | 51.82385 | 38861 ft | 546 kts | 98° |
| 2026-04-26 21:56 | 22.92219 | 51.89155 | 38857 ft | 546 kts | 98° |
| 2026-04-26 21:57 | 22.90907 | 51.97271 | 38860 ft | 546 kts | 98° |
| 2026-04-26 21:57 | 22.89589 | 52.05396 | 38856 ft | 546 kts | 99° |
| 2026-04-26 21:58 | 22.88271 | 52.13490 | 38856 ft | 546 kts | 98° |
| 2026-04-26 21:58 | 22.86953 | 52.21560 | 38856 ft | 545 kts | 98° |
| 2026-04-26 21:59 | 22.85624 | 52.29670 | 38854 ft | 545 kts | 99° |
| 2026-04-26 21:59 | 22.84294 | 52.37764 | 38854 ft | 545 kts | 99° |
| 2026-04-26 22:00 | 22.82968 | 52.45823 | 38855 ft | 544 kts | 98° |
| 2026-04-26 22:00 | 22.82298 | 52.53953 | 38851 ft | 541 kts | 89° |
| 2026-04-26 22:01 | 22.82113 | 52.62126 | 38853 ft | 541 kts | 89° |
| 2026-04-26 22:01 | 22.81903 | 52.70285 | 38854 ft | 541 kts | 89° |
| 2026-04-26 22:02 | 22.81688 | 52.78395 | 38852 ft | 540 kts | 89° |
| 2026-04-26 22:02 | 22.81468 | 52.86544 | 38845 ft | 540 kts | 89° |
| 2026-04-26 22:03 | 22.81247 | 52.94645 | 38847 ft | 540 kts | 89° |
| 2026-04-26 22:03 | 22.81019 | 53.02785 | 38853 ft | 540 kts | 89° |
| 2026-04-26 22:04 | 22.80788 | 53.10915 | 38853 ft | 539 kts | 89° |
| 2026-04-26 22:04 | 22.80553 | 53.19046 | 38856 ft | 539 kts | 89° |
| 2026-04-26 22:05 | 22.80314 | 53.27133 | 38855 ft | 538 kts | 89° |
| 2026-04-26 22:05 | 22.80071 | 53.35257 | 38855 ft | 538 kts | 89° |
| 2026-04-26 22:06 | 22.79824 | 53.43351 | 38855 ft | 537 kts | 89° |
| 2026-04-26 22:06 | 22.79574 | 53.51440 | 38855 ft | 537 kts | 89° |
| 2026-04-26 22:07 | 22.79320 | 53.59496 | 38849 ft | 537 kts | 89° |
| 2026-04-26 22:07 | 22.79062 | 53.67574 | 38850 ft | 536 kts | 89° |
| 2026-04-26 22:08 | 22.78799 | 53.75660 | 38847 ft | 536 kts | 89° |
| 2026-04-26 22:08 | 22.78533 | 53.83751 | 38847 ft | 536 kts | 89° |
| 2026-04-26 22:09 | 22.78264 | 53.91764 | 38847 ft | 535 kts | 89° |
| 2026-04-26 22:09 | 22.78353 | 53.99811 | 38842 ft | 531 kts | 81° |
| 2026-04-26 22:10 | 22.79664 | 54.07644 | 38838 ft | 526 kts | 73° |
| 2026-04-26 22:10 | 22.81244 | 54.15354 | 38838 ft | 527 kts | 74° |
| 2026-04-26 22:11 | 22.82814 | 54.23118 | 38835 ft | 526 kts | 74° |
| 2026-04-26 22:11 | 22.84384 | 54.30886 | 38839 ft | 526 kts | 74° |
| 2026-04-26 22:12 | 22.85949 | 54.38633 | 38836 ft | 526 kts | 74° |
| 2026-04-26 22:12 | 22.87496 | 54.46315 | 38836 ft | 526 kts | 74° |
| 2026-04-26 22:13 | 22.89061 | 54.54104 | 38835 ft | 526 kts | 74° |
| 2026-04-26 22:13 | 22.90614 | 54.61854 | 38838 ft | 527 kts | 74° |
| 2026-04-26 22:14 | 22.92170 | 54.69644 | 38840 ft | 527 kts | 74° |
| 2026-04-26 22:14 | 22.93722 | 54.77430 | 38839 ft | 527 kts | 74° |
| 2026-04-26 22:15 | 22.95261 | 54.85170 | 38839 ft | 528 kts | 74° |
| 2026-04-26 22:15 | 22.96804 | 54.92960 | 38844 ft | 528 kts | 74° |
| 2026-04-26 22:16 | 22.98349 | 55.00770 | 38850 ft | 528 kts | 74° |
| 2026-04-26 22:16 | 22.99886 | 55.08570 | 38854 ft | 529 kts | 74° |
| 2026-04-26 22:17 | 23.02187 | 55.16041 | 38858 ft | 517 kts | 56° |
| 2026-04-26 22:17 | 23.06431 | 55.22136 | 38863 ft | 502 kts | 37° |
| 2026-04-26 22:18 | 23.12061 | 55.26405 | 38861 ft | 486 kts | 20° |
| 2026-04-26 22:18 | 23.18378 | 55.28707 | 38864 ft | 477 kts | 9° |
| 2026-04-26 22:19 | 23.24806 | 55.30588 | 38870 ft | 477 kts | 9° |
| 2026-04-26 22:19 | 23.31184 | 55.32475 | 38876 ft | 478 kts | 9° |
| 2026-04-26 22:20 | 23.36528 | 55.34054 | 38874 ft | 478 kts | 9° |
| 2026-04-26 22:20 | 23.44026 | 55.36270 | 38877 ft | 478 kts | 9° |
| 2026-04-26 22:21 | 23.50426 | 55.38163 | 38890 ft | 478 kts | 9° |
| 2026-04-26 22:21 | 23.56851 | 55.40064 | 38868 ft | 478 kts | 9° |
| 2026-04-26 22:22 | 23.60044 | 55.41010 | 38666 ft | 473 kts | 9° |
| 2026-04-26 22:22 | 23.63207 | 55.41949 | 38430 ft | 470 kts | 9° |
| 2026-04-26 22:22 | 23.66357 | 55.42881 | 37933 ft | 469 kts | 9° |
| 2026-04-26 22:22 | 23.69476 | 55.43803 | 37079 ft | 474 kts | 9° |
| 2026-04-26 22:23 | 23.72728 | 55.44762 | 35977 ft | 483 kts | 9° |
| 2026-04-26 22:23 | 23.75950 | 55.45714 | 35134 ft | 486 kts | 10° |
| 2026-04-26 22:23 | 23.79216 | 55.46686 | 34555 ft | 484 kts | 10° |
| 2026-04-26 22:23 | 23.82463 | 55.47653 | 34243 ft | 484 kts | 10° |
| 2026-04-26 22:24 | 23.85719 | 55.48622 | 33653 ft | 486 kts | 10° |
| 2026-04-26 22:24 | 23.89006 | 55.49597 | 32819 ft | 489 kts | 10° |
| 2026-04-26 22:24 | 23.92279 | 55.50570 | 32318 ft | 483 kts | 11° |
| 2026-04-26 22:24 | 23.95486 | 55.51525 | 31967 ft | 475 kts | 11° |
| 2026-04-26 22:25 | 23.98645 | 55.52648 | 31236 ft | 480 kts | 19° |
| 2026-04-26 22:25 | 24.01632 | 55.54325 | 30637 ft | 483 kts | 28° |
| 2026-04-26 22:25 | 24.04347 | 55.56484 | 30265 ft | 481 kts | 37° |
| 2026-04-26 22:25 | 24.06791 | 55.58900 | 29674 ft | 480 kts | 40° |
| 2026-04-26 22:26 | 24.09273 | 55.61363 | 28799 ft | 482 kts | 39° |
| 2026-04-26 22:26 | 24.11752 | 55.63813 | 28249 ft | 477 kts | 39° |
| 2026-04-26 22:26 | 24.14191 | 55.66226 | 27963 ft | 468 kts | 39° |
| 2026-04-26 22:26 | 24.16614 | 55.68626 | 27575 ft | 468 kts | 39° |
| 2026-04-26 22:27 | 24.19018 | 55.71008 | 27127 ft | 466 kts | 39° |
| 2026-04-26 22:27 | 24.21416 | 55.73389 | 26560 ft | 462 kts | 39° |
| 2026-04-26 22:27 | 24.23801 | 55.75757 | 25855 ft | 463 kts | 39° |
| 2026-04-26 22:27 | 24.26183 | 55.78123 | 25163 ft | 463 kts | 39° |
| 2026-04-26 22:28 | 24.28565 | 55.80491 | 24480 ft | 462 kts | 39° |
| 2026-04-26 22:28 | 24.30954 | 55.82868 | 23831 ft | 461 kts | 39° |
| 2026-04-26 22:28 | 24.33299 | 55.85203 | 23115 ft | 460 kts | 39° |
| 2026-04-26 22:28 | 24.35672 | 55.87566 | 22339 ft | 459 kts | 40° |
| 2026-04-26 22:29 | 24.38030 | 55.89911 | 21588 ft | 456 kts | 39° |
| 2026-04-26 22:29 | 24.40586 | 55.91928 | 20857 ft | 449 kts | 26° |
| 2026-04-26 22:29 | 24.43432 | 55.93239 | 20092 ft | 440 kts | 12° |
| 2026-04-26 22:29 | 24.46387 | 55.93979 | 19346 ft | 429 kts | 8° |
| 2026-04-26 22:30 | 24.49258 | 55.94593 | 18675 ft | 421 kts | 8° |
| 2026-04-26 22:30 | 24.52105 | 55.95228 | 17969 ft | 414 kts | 9° |
| 2026-04-26 22:30 | 24.54901 | 55.95894 | 17211 ft | 407 kts | 10° |
| 2026-04-26 22:30 | 24.57639 | 55.96576 | 16462 ft | 400 kts | 11° |
| 2026-04-26 22:31 | 24.60338 | 55.97265 | 15728 ft | 394 kts | 11° |
| 2026-04-26 22:31 | 24.62955 | 55.97940 | 15030 ft | 388 kts | 11° |
| 2026-04-26 22:31 | 24.65572 | 55.98479 | 14333 ft | 378 kts | 0° |
| 2026-04-26 22:31 | 24.68140 | 55.98198 | 13701 ft | 367 kts | 341° |
| 2026-04-26 22:32 | 24.70392 | 55.97033 | 13183 ft | 352 kts | 322° |
| 2026-04-26 22:32 | 24.72268 | 55.95377 | 12678 ft | 339 kts | 319° |
| 2026-04-26 22:32 | 24.74086 | 55.93787 | 12186 ft | 330 kts | 320° |
| 2026-04-26 22:32 | 24.75883 | 55.92267 | 11807 ft | 319 kts | 321° |
| 2026-04-26 22:33 | 24.77621 | 55.90815 | 11438 ft | 309 kts | 321° |
| 2026-04-26 22:33 | 24.80960 | 55.88035 | 10900 ft | 297 kts | 321° |
| 2026-04-26 22:33 | 24.82597 | 55.86669 | 10628 ft | 294 kts | 321° |
| 2026-04-26 22:34 | 24.84221 | 55.85314 | 10336 ft | 292 kts | 321° |
| 2026-04-26 22:34 | 24.85815 | 55.83983 | 10061 ft | 290 kts | 320° |
| 2026-04-26 22:34 | 24.87419 | 55.82643 | 9781 ft | 289 kts | 320° |
| 2026-04-26 22:34 | 24.89016 | 55.81309 | 9479 ft | 287 kts | 320° |
| 2026-04-26 22:35 | 24.90603 | 55.79982 | 9168 ft | 286 kts | 320° |
| 2026-04-26 22:35 | 24.92184 | 55.78660 | 8884 ft | 284 kts | 321° |
| 2026-04-26 22:35 | 24.93761 | 55.77340 | 8591 ft | 283 kts | 321° |
| 2026-04-26 22:35 | 24.95323 | 55.76033 | 8293 ft | 279 kts | 321° |
| 2026-04-26 22:36 | 24.96852 | 55.74755 | 7998 ft | 274 kts | 321° |
| 2026-04-26 22:36 | 24.98346 | 55.73504 | 7714 ft | 271 kts | 321° |
| 2026-04-26 22:36 | 24.99856 | 55.72240 | 7424 ft | 267 kts | 321° |
| 2026-04-26 22:36 | 25.01304 | 55.71026 | 7161 ft | 261 kts | 321° |
| 2026-04-26 22:37 | 25.02727 | 55.69834 | 6856 ft | 254 kts | 321° |
| 2026-04-26 22:37 | 25.04119 | 55.68668 | 6474 ft | 248 kts | 321° |
| 2026-04-26 22:37 | 25.05463 | 55.67541 | 6164 ft | 238 kts | 321° |
| 2026-04-26 22:37 | 25.06762 | 55.66452 | 5835 ft | 231 kts | 322° |
| 2026-04-26 22:38 | 25.08028 | 55.65390 | 5491 ft | 225 kts | 322° |
| 2026-04-26 22:38 | 25.09259 | 55.64345 | 5144 ft | 220 kts | 319° |
| 2026-04-26 22:38 | 25.10335 | 55.63158 | 4751 ft | 217 kts | 308° |
| 2026-04-26 22:38 | 25.11190 | 55.61842 | 4476 ft | 210 kts | 303° |
| 2026-04-26 22:39 | 25.11932 | 55.60544 | 4225 ft | 191 kts | 302° |
| 2026-04-26 22:39 | 25.12614 | 55.59318 | 3981 ft | 185 kts | 302° |
| 2026-04-26 22:39 | 25.13287 | 55.58106 | 3726 ft | 185 kts | 302° |
| 2026-04-26 22:39 | 25.13958 | 55.56894 | 3483 ft | 184 kts | 302° |
| 2026-04-26 22:40 | 25.14616 | 55.55706 | 3245 ft | 176 kts | 302° |
| 2026-04-26 22:40 | 25.15229 | 55.54598 | 3029 ft | 168 kts | 302° |
| 2026-04-26 22:40 | 25.15838 | 55.53498 | 2801 ft | 167 kts | 302° |
| 2026-04-26 22:40 | 25.16443 | 55.52404 | 2606 ft | 166 kts | 302° |
| 2026-04-26 22:41 | 25.17042 | 55.51323 | 2398 ft | 162 kts | 302° |
| 2026-04-26 22:41 | 25.17620 | 55.50279 | 2203 ft | 158 kts | 302° |
| 2026-04-26 22:41 | 25.18190 | 55.49248 | 1998 ft | 157 kts | 302° |
| 2026-04-26 22:41 | 25.18752 | 55.48232 | 1785 ft | 151 kts | 302° |
| 2026-04-26 22:42 | 25.19286 | 55.47267 | 1613 ft | 144 kts | 302° |
| 2026-04-26 22:42 | 25.19798 | 55.46339 | 1427 ft | 144 kts | 302° |
| 2026-04-26 22:42 | 25.20318 | 55.45400 | 1242 ft | 142 kts | 302° |
| 2026-04-26 22:42 | 25.20826 | 55.44481 | 1067 ft | 139 kts | 302° |
| 2026-04-26 22:43 | 25.21331 | 55.43569 | 898 ft | 140 kts | 302° |
| 2026-04-26 22:43 | 25.21840 | 55.42649 | 730 ft | 139 kts | 300° |
| 2026-04-26 22:43 | 25.22345 | 55.41727 | 568 ft | 142 kts | 300° |
| 2026-04-26 22:43 | 25.22870 | 55.40789 | 383 ft | 144 kts | 300° |
| 2026-04-26 22:44 | 25.23380 | 55.39859 | 202 ft | 140 kts | 300° |
| 2026-04-26 22:44 | 25.23897 | 55.38935 | 39 ft | 141 kts | 300° |
| 2026-04-26 22:44 | 25.24218 | 55.38364 | 36 ft | 117 kts | 301° |
| 2026-04-26 22:44 | 25.24558 | 55.37742 | 33 ft | 66 kts | 301° |
| 2026-04-26 22:45 | 25.24696 | 55.37493 | 33 ft | 27 kts | 301° |
| 2026-04-26 22:45 | 25.24770 | 55.37331 | 34 ft | 20 kts | 282° |
| 2026-04-26 22:45 | 25.24785 | 55.37180 | 33 ft | 20 kts | 274° |
| 2026-04-26 22:45 | 25.24801 | 55.36967 | 28 ft | 21 kts | 284° |
| 2026-04-26 22:46 | 25.24843 | 55.36867 | 28 ft | 21 kts | 294° |
| 2026-04-26 22:46 | 25.24882 | 55.36709 | 27 ft | 20 kts | 286° |
| 2026-04-26 22:46 | 25.24933 | 55.36589 | 27 ft | 18 kts | 302° |
| 2026-04-26 22:46 | 25.25004 | 55.36468 | 27 ft | 19 kts | 302° |
| 2026-04-26 22:47 | 25.25079 | 55.36339 | 27 ft | 21 kts | 302° |
| 2026-04-26 22:47 | 25.25153 | 55.36200 | 27 ft | 21 kts | 300° |
| 2026-04-26 22:47 | 25.25233 | 55.36064 | 27 ft | 22 kts | 303° |
| 2026-04-26 22:47 | 25.25306 | 55.35934 | 26 ft | 11 kts | 302° |
| 2026-04-26 22:48 | 25.25340 | 55.35872 | 26 ft | 11 kts | 301° |
| 2026-04-26 22:48 | 25.25385 | 55.35789 | 26 ft | 14 kts | 301° |
| 2026-04-26 22:48 | 25.25417 | 55.35729 | 26 ft | 8 kts | 292° |
| 2026-04-26 22:48 | 25.25420 | 55.35668 | 26 ft | 8 kts | 231° |
| 2026-04-26 22:49 | 25.25372 | 55.35627 | 26 ft | 10 kts | 210° |
| 2026-04-26 22:49 | 25.25335 | 55.35603 | 27 ft | 4 kts | 212° |
| 2026-04-26 22:49 | 25.25311 | 55.35586 | 27 ft | 1 kts | 211° |
| 2026-04-26 22:49 | 25.25294 | 55.35575 | 28 ft | 2 kts | 211° |
| 2026-04-26 22:50 | 25.25289 | 55.35572 | 30 ft | 0 kts | 211° |